sensor_id;sensor_type;location;lat;lon;timestamp;P1;durP1;ratioP1;P2;durP2;ratioP2
69894;SDS011;57172;52.034;5.090;2022-09-12T00:01:48;26.40;;;16.30;;
69894;SDS011;57172;52.034;5.090;2022-09-12T00:04:15;29.25;;;18.58;;
69894;SDS011;57172;52.034;5.090;2022-09-12T00:06:42;28.73;;;18.27;;
69894;SDS011;57172;52.034;5.090;2022-09-12T00:09:10;29.25;;;18.02;;
69894;SDS011;57172;52.034;5.090;2022-09-12T00:11:40;27.52;;;17.27;;
69894;SDS011;57172;52.034;5.090;2022-09-12T00:14:11;26.40;;;17.20;;
69894;SDS011;57172;52.034;5.090;2022-09-12T00:16:42;27.27;;;18.50;;
69894;SDS011;57172;52.034;5.090;2022-09-12T00:19:09;29.13;;;17.95;;
69894;SDS011;57172;52.034;5.090;2022-09-12T00:21:38;27.38;;;17.77;;
69894;SDS011;57172;52.034;5.090;2022-09-12T00:24:05;28.08;;;18.48;;
69894;SDS011;57172;52.034;5.090;2022-09-12T00:26:33;28.90;;;18.17;;
69894;SDS011;57172;52.034;5.090;2022-09-12T00:29:00;27.95;;;18.05;;
69894;SDS011;57172;52.034;5.090;2022-09-12T00:31:27;27.17;;;18.00;;
69894;SDS011;57172;52.034;5.090;2022-09-12T00:33:55;29.25;;;18.10;;
69894;SDS011;57172;52.034;5.090;2022-09-12T00:36:24;28.48;;;17.48;;
69894;SDS011;57172;52.034;5.090;2022-09-12T00:38:52;31.00;;;17.90;;
69894;SDS011;57172;52.034;5.090;2022-09-12T00:43:53;31.33;;;17.83;;
69894;SDS011;57172;52.034;5.090;2022-09-12T00:49:35;29.83;;;17.73;;
69894;SDS011;57172;52.034;5.090;2022-09-12T00:52:13;28.53;;;17.10;;
69894;SDS011;57172;52.034;5.090;2022-09-12T00:54:48;27.48;;;17.40;;
69894;SDS011;57172;52.034;5.090;2022-09-12T00:57:16;27.83;;;18.10;;
69894;SDS011;57172;52.034;5.090;2022-09-12T00:59:47;30.60;;;18.38;;
69894;SDS011;57172;52.034;5.090;2022-09-12T01:02:18;29.35;;;16.98;;
69894;SDS011;57172;52.034;5.090;2022-09-12T01:04:45;28.97;;;17.47;;
69894;SDS011;57172;52.034;5.090;2022-09-12T01:07:13;29.67;;;17.52;;
69894;SDS011;57172;52.034;5.090;2022-09-12T01:09:41;28.30;;;17.42;;
69894;SDS011;57172;52.034;5.090;2022-09-12T01:12:09;29.40;;;17.48;;
69894;SDS011;57172;52.034;5.090;2022-09-12T01:14:38;31.40;;;17.42;;
69894;SDS011;57172;52.034;5.090;2022-09-12T01:17:05;30.10;;;17.67;;
69894;SDS011;57172;52.034;5.090;2022-09-12T01:27:43;31.60;;;17.27;;
69894;SDS011;57172;52.034;5.090;2022-09-12T01:33:51;29.35;;;17.88;;
69894;SDS011;57172;52.034;5.090;2022-09-12T01:39:35;33.63;;;19.20;;
69894;SDS011;57172;52.034;5.090;2022-09-12T01:42:19;31.00;;;17.60;;
69894;SDS011;57172;52.034;5.090;2022-09-12T01:50:02;34.50;;;20.02;;
69894;SDS011;57172;52.034;5.090;2022-09-12T01:52:54;32.53;;;19.35;;
69894;SDS011;57172;52.034;5.090;2022-09-12T01:55:35;34.60;;;19.73;;
69894;SDS011;57172;52.034;5.090;2022-09-12T01:58:23;32.07;;;19.37;;
69894;SDS011;57172;52.034;5.090;2022-09-12T02:00:59;32.13;;;18.98;;
69894;SDS011;57172;52.034;5.090;2022-09-12T02:03:48;33.33;;;19.70;;
69894;SDS011;57172;52.034;5.090;2022-09-12T02:06:26;34.60;;;20.13;;
69894;SDS011;57172;52.034;5.090;2022-09-12T02:09:10;34.03;;;19.10;;
69894;SDS011;57172;52.034;5.090;2022-09-12T02:11:43;32.90;;;19.40;;
69894;SDS011;57172;52.034;5.090;2022-09-12T02:14:15;38.00;;;21.25;;
69894;SDS011;57172;52.034;5.090;2022-09-12T02:16:50;35.17;;;20.25;;
69894;SDS011;57172;52.034;5.090;2022-09-12T02:19:26;35.20;;;19.23;;
69894;SDS011;57172;52.034;5.090;2022-09-12T02:21:59;33.83;;;19.52;;
69894;SDS011;57172;52.034;5.090;2022-09-12T02:24:35;33.47;;;19.73;;
69894;SDS011;57172;52.034;5.090;2022-09-12T02:27:07;31.95;;;19.05;;
69894;SDS011;57172;52.034;5.090;2022-09-12T02:29:41;38.63;;;21.48;;
69894;SDS011;57172;52.034;5.090;2022-09-12T02:32:11;37.17;;;21.17;;
69894;SDS011;57172;52.034;5.090;2022-09-12T02:35:13;34.72;;;20.52;;
69894;SDS011;57172;52.034;5.090;2022-09-12T02:37:56;35.10;;;20.33;;
69894;SDS011;57172;52.034;5.090;2022-09-12T02:40:34;42.17;;;22.27;;
69894;SDS011;57172;52.034;5.090;2022-09-12T02:43:02;35.42;;;20.98;;
69894;SDS011;57172;52.034;5.090;2022-09-12T02:45:30;36.15;;;20.70;;
69894;SDS011;57172;52.034;5.090;2022-09-12T02:48:17;37.38;;;20.10;;
69894;SDS011;57172;52.034;5.090;2022-09-12T02:50:44;36.20;;;20.17;;
69894;SDS011;57172;52.034;5.090;2022-09-12T02:53:12;38.90;;;21.17;;
69894;SDS011;57172;52.034;5.090;2022-09-12T02:55:39;39.78;;;21.83;;
69894;SDS011;57172;52.034;5.090;2022-09-12T02:58:10;40.65;;;21.83;;
69894;SDS011;57172;52.034;5.090;2022-09-12T03:00:53;36.67;;;21.17;;
69894;SDS011;57172;52.034;5.090;2022-09-12T03:09:10;42.72;;;22.63;;
69894;SDS011;57172;52.034;5.090;2022-09-12T03:14:58;43.42;;;22.58;;
69894;SDS011;57172;52.034;5.090;2022-09-12T03:23:16;45.85;;;23.70;;
69894;SDS011;57172;52.034;5.090;2022-09-12T03:26:00;43.83;;;23.40;;
69894;SDS011;57172;52.034;5.090;2022-09-12T03:28:35;38.55;;;21.48;;
69894;SDS011;57172;52.034;5.090;2022-09-12T03:31:11;39.73;;;22.23;;
69894;SDS011;57172;52.034;5.090;2022-09-12T03:33:40;42.85;;;22.42;;
69894;SDS011;57172;52.034;5.090;2022-09-12T03:36:14;46.55;;;23.55;;
69894;SDS011;57172;52.034;5.090;2022-09-12T03:38:44;38.92;;;21.83;;
69894;SDS011;57172;52.034;5.090;2022-09-12T03:41:11;40.40;;;22.30;;
69894;SDS011;57172;52.034;5.090;2022-09-12T03:43:38;40.40;;;21.80;;
69894;SDS011;57172;52.034;5.090;2022-09-12T03:46:05;42.97;;;23.00;;
69894;SDS011;57172;52.034;5.090;2022-09-12T03:48:32;40.33;;;21.83;;
69894;SDS011;57172;52.034;5.090;2022-09-12T03:51:03;40.88;;;22.00;;
69894;SDS011;57172;52.034;5.090;2022-09-12T03:53:31;43.70;;;23.10;;
69894;SDS011;57172;52.034;5.090;2022-09-12T03:55:58;39.23;;;21.60;;
69894;SDS011;57172;52.034;5.090;2022-09-12T03:58:28;39.22;;;21.75;;
69894;SDS011;57172;52.034;5.090;2022-09-12T04:00:56;39.20;;;22.65;;
69894;SDS011;57172;52.034;5.090;2022-09-12T04:03:23;42.42;;;22.40;;
69894;SDS011;57172;52.034;5.090;2022-09-12T04:05:50;41.10;;;22.60;;
69894;SDS011;57172;52.034;5.090;2022-09-12T04:08:16;44.43;;;23.40;;
69894;SDS011;57172;52.034;5.090;2022-09-12T04:10:43;46.28;;;22.80;;
69894;SDS011;57172;52.034;5.090;2022-09-12T04:13:10;43.08;;;22.65;;
69894;SDS011;57172;52.034;5.090;2022-09-12T04:15:37;40.40;;;21.98;;
69894;SDS011;57172;52.034;5.090;2022-09-12T04:18:03;44.65;;;23.08;;
69894;SDS011;57172;52.034;5.090;2022-09-12T04:20:31;41.03;;;21.93;;
69894;SDS011;57172;52.034;5.090;2022-09-12T04:22:58;41.95;;;22.13;;
69894;SDS011;57172;52.034;5.090;2022-09-12T04:25:25;41.65;;;22.35;;
69894;SDS011;57172;52.034;5.090;2022-09-12T04:27:53;41.13;;;21.73;;
69894;SDS011;57172;52.034;5.090;2022-09-12T04:30:20;44.47;;;22.63;;
69894;SDS011;57172;52.034;5.090;2022-09-12T04:32:47;44.70;;;21.53;;
69894;SDS011;57172;52.034;5.090;2022-09-12T04:35:13;40.92;;;22.45;;
69894;SDS011;57172;52.034;5.090;2022-09-12T04:37:40;44.25;;;23.10;;
69894;SDS011;57172;52.034;5.090;2022-09-12T04:40:07;43.65;;;22.48;;
69894;SDS011;57172;52.034;5.090;2022-09-12T04:42:34;40.22;;;22.83;;
69894;SDS011;57172;52.034;5.090;2022-09-12T04:45:01;45.57;;;23.40;;
69894;SDS011;57172;52.034;5.090;2022-09-12T04:47:28;42.58;;;22.55;;
69894;SDS011;57172;52.034;5.090;2022-09-12T04:49:55;42.63;;;21.55;;
69894;SDS011;57172;52.034;5.090;2022-09-12T04:52:22;39.72;;;20.90;;
69894;SDS011;57172;52.034;5.090;2022-09-12T04:54:49;42.30;;;21.70;;
69894;SDS011;57172;52.034;5.090;2022-09-12T04:57:16;42.40;;;22.30;;
69894;SDS011;57172;52.034;5.090;2022-09-12T04:59:42;42.00;;;22.27;;
69894;SDS011;57172;52.034;5.090;2022-09-12T05:02:09;40.40;;;21.60;;
69894;SDS011;57172;52.034;5.090;2022-09-12T05:04:36;42.47;;;21.38;;
69894;SDS011;57172;52.034;5.090;2022-09-12T05:07:03;38.67;;;21.70;;
69894;SDS011;57172;52.034;5.090;2022-09-12T05:09:30;39.57;;;21.77;;
69894;SDS011;57172;52.034;5.090;2022-09-12T05:11:57;41.55;;;22.52;;
69894;SDS011;57172;52.034;5.090;2022-09-12T05:14:31;39.17;;;22.00;;
69894;SDS011;57172;52.034;5.090;2022-09-12T05:16:58;37.28;;;21.25;;
69894;SDS011;57172;52.034;5.090;2022-09-12T05:19:27;40.90;;;22.00;;
69894;SDS011;57172;52.034;5.090;2022-09-12T05:21:55;36.67;;;20.47;;
69894;SDS011;57172;52.034;5.090;2022-09-12T05:24:23;43.00;;;22.33;;
69894;SDS011;57172;52.034;5.090;2022-09-12T05:26:50;39.08;;;21.80;;
69894;SDS011;57172;52.034;5.090;2022-09-12T05:29:17;42.83;;;21.42;;
69894;SDS011;57172;52.034;5.090;2022-09-12T05:31:44;41.58;;;22.45;;
69894;SDS011;57172;52.034;5.090;2022-09-12T05:34:11;39.67;;;21.67;;
69894;SDS011;57172;52.034;5.090;2022-09-12T05:36:37;38.95;;;21.23;;
69894;SDS011;57172;52.034;5.090;2022-09-12T05:39:04;37.88;;;21.20;;
69894;SDS011;57172;52.034;5.090;2022-09-12T05:41:31;38.70;;;20.95;;
69894;SDS011;57172;52.034;5.090;2022-09-12T05:44:00;39.00;;;21.63;;
69894;SDS011;57172;52.034;5.090;2022-09-12T05:46:29;40.00;;;21.20;;
69894;SDS011;57172;52.034;5.090;2022-09-12T05:49:02;38.85;;;21.75;;
69894;SDS011;57172;52.034;5.090;2022-09-12T05:51:31;39.25;;;22.13;;
69894;SDS011;57172;52.034;5.090;2022-09-12T05:54:00;43.90;;;21.42;;
69894;SDS011;57172;52.034;5.090;2022-09-12T05:56:32;41.83;;;21.80;;
69894;SDS011;57172;52.034;5.090;2022-09-12T05:59:00;44.73;;;22.40;;
69894;SDS011;57172;52.034;5.090;2022-09-12T06:01:31;43.47;;;21.27;;
69894;SDS011;57172;52.034;5.090;2022-09-12T06:04:01;41.55;;;21.92;;
69894;SDS011;57172;52.034;5.090;2022-09-12T06:06:30;41.65;;;21.75;;
69894;SDS011;57172;52.034;5.090;2022-09-12T06:09:02;39.17;;;21.67;;
69894;SDS011;57172;52.034;5.090;2022-09-12T06:11:30;39.20;;;21.43;;
69894;SDS011;57172;52.034;5.090;2022-09-12T06:13:58;41.38;;;21.80;;
69894;SDS011;57172;52.034;5.090;2022-09-12T06:16:27;43.80;;;22.05;;
69894;SDS011;57172;52.034;5.090;2022-09-12T06:18:57;40.95;;;22.00;;
69894;SDS011;57172;52.034;5.090;2022-09-12T06:21:25;42.80;;;21.65;;
69894;SDS011;57172;52.034;5.090;2022-09-12T06:23:53;42.63;;;22.23;;
69894;SDS011;57172;52.034;5.090;2022-09-12T06:26:21;42.30;;;22.27;;
69894;SDS011;57172;52.034;5.090;2022-09-12T06:28:52;42.30;;;22.42;;
69894;SDS011;57172;52.034;5.090;2022-09-12T06:31:21;43.40;;;22.45;;
69894;SDS011;57172;52.034;5.090;2022-09-12T06:33:51;40.20;;;21.73;;
69894;SDS011;57172;52.034;5.090;2022-09-12T06:36:20;42.37;;;22.03;;
69894;SDS011;57172;52.034;5.090;2022-09-12T06:38:52;40.38;;;22.08;;
69894;SDS011;57172;52.034;5.090;2022-09-12T06:41:21;41.58;;;21.90;;
69894;SDS011;57172;52.034;5.090;2022-09-12T06:43:49;42.30;;;23.15;;
69894;SDS011;57172;52.034;5.090;2022-09-12T06:46:16;40.20;;;21.58;;
69894;SDS011;57172;52.034;5.090;2022-09-12T06:48:44;42.93;;;22.87;;
69894;SDS011;57172;52.034;5.090;2022-09-12T06:51:12;40.28;;;21.70;;
69894;SDS011;57172;52.034;5.090;2022-09-12T06:53:40;39.45;;;21.83;;
69894;SDS011;57172;52.034;5.090;2022-09-12T06:56:18;37.13;;;20.90;;
69894;SDS011;57172;52.034;5.090;2022-09-12T06:58:46;41.00;;;21.77;;
69894;SDS011;57172;52.034;5.090;2022-09-12T07:01:15;39.87;;;21.43;;
69894;SDS011;57172;52.034;5.090;2022-09-12T07:03:47;40.60;;;20.77;;
69894;SDS011;57172;52.034;5.090;2022-09-12T07:06:16;38.10;;;21.42;;
69894;SDS011;57172;52.034;5.090;2022-09-12T07:08:45;40.03;;;21.63;;
69894;SDS011;57172;52.034;5.090;2022-09-12T07:11:17;99.63;;;27.40;;
69894;SDS011;57172;52.034;5.090;2022-09-12T07:13:50;67.17;;;23.13;;
69894;SDS011;57172;52.034;5.090;2022-09-12T07:16:18;58.58;;;23.65;;
69894;SDS011;57172;52.034;5.090;2022-09-12T07:18:53;43.33;;;20.90;;
69894;SDS011;57172;52.034;5.090;2022-09-12T07:21:21;33.70;;;19.42;;
69894;SDS011;57172;52.034;5.090;2022-09-12T07:23:49;35.03;;;19.20;;
69894;SDS011;57172;52.034;5.090;2022-09-12T07:26:20;31.63;;;19.17;;
69894;SDS011;57172;52.034;5.090;2022-09-12T07:28:50;35.53;;;19.25;;
69894;SDS011;57172;52.034;5.090;2022-09-12T07:31:20;31.80;;;18.90;;
69894;SDS011;57172;52.034;5.090;2022-09-12T07:33:48;31.80;;;18.92;;
69894;SDS011;57172;52.034;5.090;2022-09-12T07:36:20;29.80;;;18.20;;
69894;SDS011;57172;52.034;5.090;2022-09-12T07:38:52;30.07;;;18.23;;
69894;SDS011;57172;52.034;5.090;2022-09-12T07:41:23;27.58;;;17.38;;
69894;SDS011;57172;52.034;5.090;2022-09-12T07:43:52;30.10;;;18.15;;
69894;SDS011;57172;52.034;5.090;2022-09-12T07:46:20;31.13;;;18.33;;
69894;SDS011;57172;52.034;5.090;2022-09-12T07:49:05;28.05;;;17.45;;
69894;SDS011;57172;52.034;5.090;2022-09-12T07:51:33;33.43;;;18.37;;
69894;SDS011;57172;52.034;5.090;2022-09-12T07:54:01;29.85;;;18.05;;
69894;SDS011;57172;52.034;5.090;2022-09-12T07:56:28;75.95;;;23.38;;
69894;SDS011;57172;52.034;5.090;2022-09-12T07:59:00;50.15;;;21.17;;
69894;SDS011;57172;52.034;5.090;2022-09-12T08:01:28;41.33;;;20.38;;
69894;SDS011;57172;52.034;5.090;2022-09-12T08:03:55;26.90;;;16.83;;
69894;SDS011;57172;52.034;5.090;2022-09-12T08:06:24;24.40;;;16.80;;
69894;SDS011;57172;52.034;5.090;2022-09-12T08:08:55;25.95;;;16.52;;
69894;SDS011;57172;52.034;5.090;2022-09-12T08:11:24;21.95;;;15.55;;
69894;SDS011;57172;52.034;5.090;2022-09-12T08:13:53;21.60;;;15.60;;
69894;SDS011;57172;52.034;5.090;2022-09-12T08:16:23;23.07;;;15.27;;
69894;SDS011;57172;52.034;5.090;2022-09-12T08:18:52;26.83;;;16.08;;
69894;SDS011;57172;52.034;5.090;2022-09-12T08:21:23;22.77;;;16.20;;
69894;SDS011;57172;52.034;5.090;2022-09-12T08:23:52;23.23;;;16.30;;
69894;SDS011;57172;52.034;5.090;2022-09-12T08:26:20;21.50;;;15.68;;
69894;SDS011;57172;52.034;5.090;2022-09-12T08:28:48;21.23;;;15.57;;
69894;SDS011;57172;52.034;5.090;2022-09-12T08:31:17;19.95;;;15.77;;
69894;SDS011;57172;52.034;5.090;2022-09-12T08:33:45;19.27;;;15.23;;
69894;SDS011;57172;52.034;5.090;2022-09-12T08:36:17;20.35;;;14.73;;
69894;SDS011;57172;52.034;5.090;2022-09-12T08:38:47;18.55;;;13.38;;
69894;SDS011;57172;52.034;5.090;2022-09-12T08:49:29;17.48;;;12.98;;
69894;SDS011;57172;52.034;5.090;2022-09-12T08:52:01;16.90;;;12.77;;
69894;SDS011;57172;52.034;5.090;2022-09-12T08:54:38;18.10;;;12.43;;
69894;SDS011;57172;52.034;5.090;2022-09-12T08:57:07;19.90;;;13.55;;
69894;SDS011;57172;52.034;5.090;2022-09-12T08:59:37;21.08;;;12.32;;
69894;SDS011;57172;52.034;5.090;2022-09-12T09:02:21;18.35;;;13.02;;
69894;SDS011;57172;52.034;5.090;2022-09-12T09:05:11;16.40;;;12.30;;
69894;SDS011;57172;52.034;5.090;2022-09-12T09:07:53;15.60;;;11.83;;
69894;SDS011;57172;52.034;5.090;2022-09-12T09:16:41;17.38;;;12.05;;
69894;SDS011;57172;52.034;5.090;2022-09-12T09:19:24;15.95;;;11.82;;
69894;SDS011;57172;52.034;5.090;2022-09-12T09:21:59;15.77;;;11.80;;
69894;SDS011;57172;52.034;5.090;2022-09-12T09:24:37;15.25;;;11.05;;
69894;SDS011;57172;52.034;5.090;2022-09-12T09:30:00;16.85;;;10.77;;
69894;SDS011;57172;52.034;5.090;2022-09-12T09:32:35;16.38;;;10.90;;
69894;SDS011;57172;52.034;5.090;2022-09-12T09:35:17;14.73;;;10.63;;
69894;SDS011;57172;52.034;5.090;2022-09-12T09:38:12;14.93;;;10.63;;
69894;SDS011;57172;52.034;5.090;2022-09-12T09:43:15;13.80;;;10.35;;
69894;SDS011;57172;52.034;5.090;2022-09-12T09:45:43;14.93;;;10.07;;
69894;SDS011;57172;52.034;5.090;2022-09-12T09:50:45;12.98;;;9.88;;
69894;SDS011;57172;52.034;5.090;2022-09-12T09:53:25;15.90;;;9.90;;
69894;SDS011;57172;52.034;5.090;2022-09-12T09:55:57;16.27;;;10.23;;
69894;SDS011;57172;52.034;5.090;2022-09-12T09:58:30;14.82;;;9.23;;
69894;SDS011;57172;52.034;5.090;2022-09-12T10:01:11;13.67;;;9.73;;
69894;SDS011;57172;52.034;5.090;2022-09-12T10:03:48;12.27;;;9.35;;
69894;SDS011;57172;52.034;5.090;2022-09-12T10:09:16;14.57;;;9.48;;
69894;SDS011;57172;52.034;5.090;2022-09-12T10:11:46;11.55;;;8.80;;
69894;SDS011;57172;52.034;5.090;2022-09-12T10:14:30;9.43;;;7.50;;
69894;SDS011;57172;52.034;5.090;2022-09-12T10:17:01;10.90;;;8.50;;
69894;SDS011;57172;52.034;5.090;2022-09-12T10:19:33;10.75;;;7.63;;
69894;SDS011;57172;52.034;5.090;2022-09-12T10:22:05;10.45;;;7.15;;
69894;SDS011;57172;52.034;5.090;2022-09-12T10:24:40;11.00;;;7.40;;
69894;SDS011;57172;52.034;5.090;2022-09-12T10:32:26;9.20;;;6.65;;
69894;SDS011;57172;52.034;5.090;2022-09-12T10:35:27;9.82;;;6.43;;
69894;SDS011;57172;52.034;5.090;2022-09-12T10:37:56;9.48;;;6.88;;
69894;SDS011;57172;52.034;5.090;2022-09-12T10:40:28;7.93;;;6.00;;
69894;SDS011;57172;52.034;5.090;2022-09-12T10:42:58;10.75;;;6.93;;
69894;SDS011;57172;52.034;5.090;2022-09-12T10:45:29;9.00;;;6.70;;
69894;SDS011;57172;52.034;5.090;2022-09-12T10:48:02;8.50;;;6.00;;
69894;SDS011;57172;52.034;5.090;2022-09-12T10:50:49;8.45;;;6.03;;
69894;SDS011;57172;52.034;5.090;2022-09-12T10:53:18;8.63;;;6.00;;
69894;SDS011;57172;52.034;5.090;2022-09-12T11:10:02;9.35;;;6.40;;
69894;SDS011;57172;52.034;5.090;2022-09-12T11:12:59;10.13;;;6.82;;
69894;SDS011;57172;52.034;5.090;2022-09-12T11:18:30;8.70;;;5.35;;
69894;SDS011;57172;52.034;5.090;2022-09-12T11:31:58;7.05;;;4.60;;
69894;SDS011;57172;52.034;5.090;2022-09-12T11:40:51;7.25;;;4.95;;
69894;SDS011;57172;52.034;5.090;2022-09-12T11:45:53;7.57;;;4.50;;
69894;SDS011;57172;52.034;5.090;2022-09-12T11:50:58;6.07;;;4.35;;
69894;SDS011;57172;52.034;5.090;2022-09-12T11:53:29;7.20;;;4.22;;
69894;SDS011;57172;52.034;5.090;2022-09-12T11:56:03;7.18;;;3.90;;
69894;SDS011;57172;52.034;5.090;2022-09-12T11:58:31;6.20;;;3.50;;
69894;SDS011;57172;52.034;5.090;2022-09-12T12:01:08;6.40;;;3.67;;
69894;SDS011;57172;52.034;5.090;2022-09-12T12:03:46;6.30;;;3.78;;
69894;SDS011;57172;52.034;5.090;2022-09-12T12:06:18;5.95;;;3.70;;
69894;SDS011;57172;52.034;5.090;2022-09-12T12:08:48;7.13;;;3.60;;
69894;SDS011;57172;52.034;5.090;2022-09-12T12:14:11;4.90;;;3.23;;
69894;SDS011;57172;52.034;5.090;2022-09-12T12:16:42;6.50;;;3.80;;
69894;SDS011;57172;52.034;5.090;2022-09-12T12:21:43;8.13;;;4.15;;
69894;SDS011;57172;52.034;5.090;2022-09-12T12:24:12;5.55;;;3.55;;
69894;SDS011;57172;52.034;5.090;2022-09-12T12:34:33;6.25;;;3.70;;
69894;SDS011;57172;52.034;5.090;2022-09-12T12:47:43;5.70;;;3.40;;
69894;SDS011;57172;52.034;5.090;2022-09-12T12:50:19;8.63;;;4.68;;
69894;SDS011;57172;52.034;5.090;2022-09-12T12:52:55;5.37;;;3.70;;
69894;SDS011;57172;52.034;5.090;2022-09-12T12:58:01;5.03;;;3.97;;
69894;SDS011;57172;52.034;5.090;2022-09-12T13:00:30;5.82;;;3.80;;
69894;SDS011;57172;52.034;5.090;2022-09-12T13:05:39;6.07;;;3.67;;
69894;SDS011;57172;52.034;5.090;2022-09-12T13:13:51;5.38;;;3.22;;
69894;SDS011;57172;52.034;5.090;2022-09-12T13:16:34;5.75;;;3.38;;
69894;SDS011;57172;52.034;5.090;2022-09-12T13:19:05;4.07;;;2.80;;
69894;SDS011;57172;52.034;5.090;2022-09-12T13:21:53;5.00;;;2.72;;
69894;SDS011;57172;52.034;5.090;2022-09-12T13:24:28;4.03;;;2.67;;
69894;SDS011;57172;52.034;5.090;2022-09-12T13:26:56;6.03;;;3.20;;
69894;SDS011;57172;52.034;5.090;2022-09-12T13:29:24;5.47;;;3.28;;
69894;SDS011;57172;52.034;5.090;2022-09-12T13:31:56;4.27;;;2.80;;
69894;SDS011;57172;52.034;5.090;2022-09-12T13:34:26;4.75;;;3.17;;
69894;SDS011;57172;52.034;5.090;2022-09-12T13:39:34;5.00;;;3.20;;
69894;SDS011;57172;52.034;5.090;2022-09-12T13:44:50;5.73;;;2.90;;
69894;SDS011;57172;52.034;5.090;2022-09-12T13:47:25;5.20;;;3.05;;
69894;SDS011;57172;52.034;5.090;2022-09-12T13:49:57;5.15;;;2.78;;
69894;SDS011;57172;52.034;5.090;2022-09-12T13:52:29;5.90;;;3.08;;
69894;SDS011;57172;52.034;5.090;2022-09-12T13:54:58;4.82;;;3.00;;
69894;SDS011;57172;52.034;5.090;2022-09-12T13:57:28;4.47;;;2.80;;
69894;SDS011;57172;52.034;5.090;2022-09-12T14:00:24;4.47;;;3.22;;
69894;SDS011;57172;52.034;5.090;2022-09-12T14:02:49;6.28;;;3.40;;
69894;SDS011;57172;52.034;5.090;2022-09-12T14:05:39;5.75;;;2.88;;
69894;SDS011;57172;52.034;5.090;2022-09-12T14:08:10;4.85;;;2.80;;
69894;SDS011;57172;52.034;5.090;2022-09-12T14:10:43;5.33;;;3.20;;
69894;SDS011;57172;52.034;5.090;2022-09-12T14:13:15;4.70;;;3.15;;
69894;SDS011;57172;52.034;5.090;2022-09-12T14:15:44;4.85;;;3.20;;
69894;SDS011;57172;52.034;5.090;2022-09-12T14:18:24;5.35;;;3.17;;
69894;SDS011;57172;52.034;5.090;2022-09-12T14:20:53;5.32;;;3.30;;
69894;SDS011;57172;52.034;5.090;2022-09-12T14:23:24;4.90;;;3.10;;
69894;SDS011;57172;52.034;5.090;2022-09-12T14:25:56;5.15;;;3.00;;
69894;SDS011;57172;52.034;5.090;2022-09-12T14:28:25;4.68;;;3.00;;
69894;SDS011;57172;52.034;5.090;2022-09-12T14:31:00;6.53;;;3.00;;
69894;SDS011;57172;52.034;5.090;2022-09-12T14:38:55;5.60;;;3.00;;
69894;SDS011;57172;52.034;5.090;2022-09-12T14:41:38;4.47;;;3.00;;
69894;SDS011;57172;52.034;5.090;2022-09-12T14:44:07;4.40;;;2.80;;
69894;SDS011;57172;52.034;5.090;2022-09-12T14:46:41;5.50;;;3.05;;
69894;SDS011;57172;52.034;5.090;2022-09-12T14:49:13;6.97;;;2.90;;
69894;SDS011;57172;52.034;5.090;2022-09-12T14:51:52;4.32;;;2.63;;
69894;SDS011;57172;52.034;5.090;2022-09-12T14:56:55;5.22;;;2.85;;
69894;SDS011;57172;52.034;5.090;2022-09-12T15:12:49;5.50;;;3.30;;
69894;SDS011;57172;52.034;5.090;2022-09-12T15:15:28;7.47;;;2.90;;
69894;SDS011;57172;52.034;5.090;2022-09-12T15:17:55;4.32;;;3.08;;
69894;SDS011;57172;52.034;5.090;2022-09-12T15:20:22;4.30;;;3.13;;
69894;SDS011;57172;52.034;5.090;2022-09-12T15:22:49;6.60;;;3.25;;
69894;SDS011;57172;52.034;5.090;2022-09-12T15:25:16;5.28;;;2.92;;
69894;SDS011;57172;52.034;5.090;2022-09-12T15:27:46;4.10;;;2.97;;
69894;SDS011;57172;52.034;5.090;2022-09-12T15:30:15;5.00;;;3.03;;
69894;SDS011;57172;52.034;5.090;2022-09-12T15:32:42;5.28;;;2.70;;
69894;SDS011;57172;52.034;5.090;2022-09-12T15:35:16;3.00;;;2.63;;
69894;SDS011;57172;52.034;5.090;2022-09-12T15:37:46;4.20;;;2.63;;
69894;SDS011;57172;52.034;5.090;2022-09-12T15:40:13;4.90;;;2.60;;
69894;SDS011;57172;52.034;5.090;2022-09-12T15:42:41;8.18;;;2.70;;
69894;SDS011;57172;52.034;5.090;2022-09-12T15:45:11;4.00;;;2.80;;
69894;SDS011;57172;52.034;5.090;2022-09-12T15:47:45;3.55;;;2.70;;
69894;SDS011;57172;52.034;5.090;2022-09-12T15:50:12;3.75;;;2.67;;
69894;SDS011;57172;52.034;5.090;2022-09-12T15:52:39;6.67;;;2.90;;
69894;SDS011;57172;52.034;5.090;2022-09-12T15:55:20;4.18;;;2.70;;
69894;SDS011;57172;52.034;5.090;2022-09-12T15:57:54;4.10;;;2.80;;
69894;SDS011;57172;52.034;5.090;2022-09-12T16:00:21;3.97;;;2.70;;
69894;SDS011;57172;52.034;5.090;2022-09-12T16:02:49;4.93;;;2.70;;
69894;SDS011;57172;52.034;5.090;2022-09-12T16:05:22;5.00;;;2.80;;
69894;SDS011;57172;52.034;5.090;2022-09-12T16:07:51;3.50;;;2.70;;
69894;SDS011;57172;52.034;5.090;2022-09-12T16:10:20;4.00;;;2.70;;
69894;SDS011;57172;52.034;5.090;2022-09-12T16:12:49;5.63;;;2.97;;
69894;SDS011;57172;52.034;5.090;2022-09-12T16:15:17;3.53;;;2.70;;
69894;SDS011;57172;52.034;5.090;2022-09-12T16:17:45;4.47;;;2.90;;
69894;SDS011;57172;52.034;5.090;2022-09-12T16:20:12;4.72;;;2.80;;
69894;SDS011;57172;52.034;5.090;2022-09-12T16:22:39;5.43;;;3.10;;
69894;SDS011;57172;52.034;5.090;2022-09-12T16:25:07;4.47;;;2.90;;
69894;SDS011;57172;52.034;5.090;2022-09-12T16:27:35;4.75;;;2.80;;
69894;SDS011;57172;52.034;5.090;2022-09-12T16:30:03;5.53;;;2.80;;
69894;SDS011;57172;52.034;5.090;2022-09-12T16:32:31;3.95;;;2.70;;
69894;SDS011;57172;52.034;5.090;2022-09-12T16:34:58;4.70;;;2.60;;
69894;SDS011;57172;52.034;5.090;2022-09-12T16:37:25;3.67;;;2.70;;
69894;SDS011;57172;52.034;5.090;2022-09-12T16:39:52;4.05;;;2.70;;
69894;SDS011;57172;52.034;5.090;2022-09-12T16:42:19;6.47;;;2.80;;
69894;SDS011;57172;52.034;5.090;2022-09-12T16:44:46;6.97;;;3.10;;
69894;SDS011;57172;52.034;5.090;2022-09-12T16:47:13;5.95;;;2.80;;
69894;SDS011;57172;52.034;5.090;2022-09-12T16:49:40;4.65;;;2.88;;
69894;SDS011;57172;52.034;5.090;2022-09-12T16:52:07;3.58;;;2.88;;
69894;SDS011;57172;52.034;5.090;2022-09-12T16:54:34;4.77;;;2.97;;
69894;SDS011;57172;52.034;5.090;2022-09-12T16:57:00;4.00;;;2.80;;
69894;SDS011;57172;52.034;5.090;2022-09-12T16:59:30;5.63;;;3.10;;
69894;SDS011;57172;52.034;5.090;2022-09-12T17:01:57;5.82;;;2.80;;
69894;SDS011;57172;52.034;5.090;2022-09-12T17:04:24;9.40;;;2.95;;
69894;SDS011;57172;52.034;5.090;2022-09-12T17:06:51;4.80;;;2.90;;
69894;SDS011;57172;52.034;5.090;2022-09-12T17:09:18;4.82;;;2.88;;
69894;SDS011;57172;52.034;5.090;2022-09-12T17:11:45;5.18;;;2.85;;
69894;SDS011;57172;52.034;5.090;2022-09-12T17:14:13;5.93;;;2.97;;
69894;SDS011;57172;52.034;5.090;2022-09-12T17:16:41;5.30;;;2.80;;
69894;SDS011;57172;52.034;5.090;2022-09-12T17:19:17;4.07;;;2.90;;
69894;SDS011;57172;52.034;5.090;2022-09-12T17:21:55;4.90;;;3.00;;
69894;SDS011;57172;52.034;5.090;2022-09-12T17:24:22;5.25;;;3.05;;
69894;SDS011;57172;52.034;5.090;2022-09-12T17:26:50;4.35;;;2.88;;
69894;SDS011;57172;52.034;5.090;2022-09-12T17:29:18;5.25;;;2.83;;
69894;SDS011;57172;52.034;5.090;2022-09-12T17:31:45;6.00;;;3.20;;
69894;SDS011;57172;52.034;5.090;2022-09-12T17:34:13;4.28;;;2.90;;
69894;SDS011;57172;52.034;5.090;2022-09-12T17:36:41;5.03;;;3.15;;
69894;SDS011;57172;52.034;5.090;2022-09-12T17:39:13;4.63;;;3.10;;
69894;SDS011;57172;52.034;5.090;2022-09-12T17:41:40;4.70;;;3.20;;
69894;SDS011;57172;52.034;5.090;2022-09-12T17:44:09;7.00;;;3.30;;
69894;SDS011;57172;52.034;5.090;2022-09-12T17:46:38;5.07;;;3.20;;